メインページ
METAR-TAF:

METAR-TAF

空港 :

ンジャメナ, チャド

ンジャメナ国際空港

緯度: 12-08N, 経度: 015-02E, 海抜: 295m

現時点の気象観測

当レポートは50分前の11:00(UTC)に作成
の風 12kt、南/南東から南/南西の間で変化する
気温 34°C
湿度 44%
気圧 1010 hPa
視程: 6000m
高度5000ftの雲はほとんどない, 積乱雲.

METAR: FTTJ 241100Z 18012KT 150V210 6000 FEW050CB 34/20 Q1010 TEMPO 22015G30KT 2000 TS BLDU

時間: 12:50 (11:50 UTC)

予報

当レポートは50分前の11:00(UTC)に作成
予報は24日の 12時(UTC)から 25日の 18時(UTC)まで有効
南/南東の風 8kt
視程: 8000m
高度4000ftの雲はほとんどない, 積乱雲.
激しい雷雨
24日の 12時(UTC)から 24日の 16時(UTC)まで一時的に
変向風 15kt、最大30ktの突風を伴う
視程: 2000m
激しい雷雨, 雨, 風塵
24日の 1900時(UTC)から
南/南西の風 6kt
視程10km以上
1,500メートル以下は雲なし、積乱雲なし

TAF: FTTJ 241100Z 2412/2518 16008KT 8000 TS FEW040CB TEMPO 2412/2416 VRB15G30KT 2000 TSRA BLDU FM241900 20006KT CAVOK

4,000以上の空港の気象観測と天気予報(METAR報とTAF報)

利用可能な観測所は地図上に黄色い丸と赤い丸で示す。

丸の上にカーソルを重ねると観測所名を参照できる。

次にクリックすると気象観測と天気予報を参照できる。

マップの切り替え:黒色「×」印の緑ボタンをクリックして拡大、「-」印の緑ボタンをクリックして縮小、緑色の三角印をクリックして隣りの地図に切り替え


METAR-TAF: